createdAt,value
2023-05-09T00:02:06.955Z,17.47
2023-05-09T00:04:35.387Z,17.47
2023-05-09T00:07:02.620Z,17.42
2023-05-09T00:09:29.716Z,17.40
2023-05-09T00:11:56.702Z,17.39
2023-05-09T00:14:24.905Z,17.39
2023-05-09T00:16:52.955Z,17.38
2023-05-09T00:19:20.203Z,17.36
2023-05-09T00:21:47.256Z,17.35
2023-05-09T00:24:14.319Z,17.34
2023-05-09T00:26:41.584Z,17.30
2023-05-09T00:29:08.618Z,17.30
2023-05-09T00:31:36.355Z,17.26
2023-05-09T00:34:03.427Z,17.30
2023-05-09T00:36:30.598Z,17.32
2023-05-09T00:38:57.650Z,17.30
2023-05-09T00:41:24.680Z,17.27
2023-05-09T00:43:51.821Z,17.28
2023-05-09T00:46:18.915Z,17.28
2023-05-09T00:48:46.572Z,17.29
2023-05-09T00:51:14.108Z,17.33
2023-05-09T00:53:41.240Z,17.34
2023-05-09T00:56:09.251Z,17.34
2023-05-09T00:58:36.374Z,17.38
2023-05-09T01:01:03.889Z,17.37
2023-05-09T01:03:31.656Z,17.36
2023-05-09T01:06:39.637Z,17.37
2023-05-09T01:09:34.418Z,17.32
2023-05-09T01:12:04.576Z,17.26
2023-05-09T01:14:59.929Z,17.21
2023-05-09T01:17:44.283Z,17.19
2023-05-09T01:20:16.889Z,17.20
2023-05-09T01:23:01.270Z,17.17
2023-05-09T01:25:38.409Z,17.17
2023-05-09T01:28:58.188Z,17.17
2023-05-09T01:31:26.790Z,17.14
2023-05-09T01:33:59.845Z,17.12
2023-05-09T01:36:33.027Z,17.10
2023-05-09T01:39:02.188Z,17.04
2023-05-09T01:41:34.530Z,17.02
2023-05-09T01:44:06.948Z,17.00
2023-05-09T01:46:36.206Z,16.97
2023-05-09T01:49:04.990Z,16.95
2023-05-09T01:51:34.459Z,16.93
2023-05-09T01:54:02.166Z,16.92
2023-05-09T01:56:31.193Z,16.91
2023-05-09T01:59:00.140Z,16.90
2023-05-09T02:01:27.725Z,16.87
2023-05-09T02:03:56.256Z,16.83
2023-05-09T02:06:25.486Z,16.78
2023-05-09T02:08:52.708Z,16.74
2023-05-09T02:11:19.920Z,16.72
2023-05-09T02:13:47.155Z,16.68
2023-05-09T02:16:14.943Z,16.64
2023-05-09T02:18:41.973Z,16.60
2023-05-09T02:21:09.121Z,16.60
2023-05-09T02:23:36.163Z,16.59
2023-05-09T02:26:04.028Z,16.57
2023-05-09T02:28:31.691Z,16.55
2023-05-09T02:31:02.261Z,16.55
2023-05-09T02:33:30.889Z,16.54
2023-05-09T02:35:57.960Z,16.53
2023-05-09T02:38:25.185Z,16.53
2023-05-09T02:40:52.675Z,16.52
2023-05-09T02:43:22.043Z,16.50
2023-05-09T02:45:49.098Z,16.50
2023-05-09T02:48:16.145Z,16.49
2023-05-09T02:50:43.488Z,16.44
2023-05-09T02:53:10.579Z,16.39
2023-05-09T02:55:37.989Z,16.31
2023-05-09T02:58:13.978Z,16.26
2023-05-09T03:00:43.078Z,16.23
2023-05-09T03:03:10.328Z,16.22
2023-05-09T03:05:37.623Z,16.21
2023-05-09T03:08:05.182Z,16.19
2023-05-09T03:10:32.279Z,16.21
2023-05-09T03:12:59.337Z,16.24
2023-05-09T03:15:26.964Z,16.24
2023-05-09T03:17:54.025Z,16.21
2023-05-09T03:20:21.225Z,16.17
2023-05-09T03:22:48.598Z,16.16
2023-05-09T03:25:16.395Z,16.11
2023-05-09T03:27:43.679Z,16.09
2023-05-09T03:30:11.624Z,16.05
2023-05-09T03:32:39.121Z,16.03
2023-05-09T03:35:06.597Z,16.05
2023-05-09T03:37:33.797Z,16.03
2023-05-09T03:40:01.019Z,16.04
2023-05-09T03:42:28.107Z,16.07
2023-05-09T03:44:55.275Z,16.09
2023-05-09T03:47:22.343Z,16.06
2023-05-09T03:49:49.738Z,16.07
2023-05-09T03:52:16.792Z,16.08
2023-05-09T03:54:43.927Z,16.09
2023-05-09T03:57:11.037Z,16.08
2023-05-09T03:59:38.130Z,16.08
2023-05-09T04:02:05.989Z,16.05
2023-05-09T04:04:33.126Z,16.02
2023-05-09T04:07:00.290Z,15.99
2023-05-09T04:09:28.205Z,15.96
2023-05-09T04:11:55.314Z,15.95
2023-05-09T04:14:22.432Z,15.93
2023-05-09T04:16:49.532Z,15.92
2023-05-09T04:19:16.627Z,15.92
2023-05-09T04:21:43.770Z,15.93
2023-05-09T04:24:10.870Z,15.94
2023-05-09T04:26:39.050Z,15.97
2023-05-09T04:29:06.507Z,16.01
2023-05-09T04:31:33.940Z,16.04
2023-05-09T04:34:00.997Z,16.08
2023-05-09T04:36:28.974Z,16.08
2023-05-09T04:38:56.216Z,16.09
2023-05-09T04:41:24.029Z,16.11
2023-05-09T04:43:52.461Z,16.15
2023-05-09T04:46:19.619Z,16.21
2023-05-09T04:48:46.686Z,16.24
2023-05-09T04:51:13.719Z,16.33
2023-05-09T04:53:40.802Z,16.41
2023-05-09T04:56:08.296Z,16.52
2023-05-09T04:58:38.452Z,16.63
2023-05-09T05:01:07.099Z,16.70
2023-05-09T05:03:34.448Z,16.75
2023-05-09T05:06:01.691Z,16.73
2023-05-09T05:08:28.970Z,16.71
2023-05-09T05:10:56.291Z,16.74
2023-05-09T05:13:23.498Z,16.74
2023-05-09T05:15:50.771Z,16.75
2023-05-09T05:18:18.270Z,16.80
2023-05-09T05:20:45.825Z,16.84
2023-05-09T05:23:12.910Z,16.89
2023-05-09T05:25:40.011Z,16.95
2023-05-09T05:28:07.055Z,17.03
2023-05-09T05:30:34.615Z,17.07
2023-05-09T05:33:01.891Z,17.17
2023-05-09T05:35:29.414Z,17.30
2023-05-09T05:37:56.518Z,17.43
2023-05-09T05:40:23.730Z,17.57
2023-05-09T05:42:50.770Z,17.76
2023-05-09T05:45:18.145Z,17.83
2023-05-09T05:47:45.714Z,17.92
2023-05-09T05:50:13.536Z,18.00
2023-05-09T05:52:41.768Z,18.07
2023-05-09T05:55:09.347Z,18.15
2023-05-09T05:57:37.763Z,18.24
2023-05-09T06:00:10.602Z,18.37
2023-05-09T06:02:38.043Z,18.47
2023-05-09T06:05:07.162Z,18.61
2023-05-09T06:07:34.267Z,18.73
2023-05-09T06:10:01.384Z,18.79
2023-05-09T06:12:28.559Z,18.80
2023-05-09T06:14:55.730Z,18.89
2023-05-09T06:17:23.136Z,18.93
2023-05-09T06:19:50.232Z,18.93
2023-05-09T06:22:17.243Z,18.98
2023-05-09T06:24:44.217Z,18.99
2023-05-09T06:27:11.359Z,19.02
2023-05-09T06:29:38.558Z,19.02
2023-05-09T06:32:06.138Z,19.04
2023-05-09T06:34:33.338Z,19.06
2023-05-09T06:37:00.438Z,19.11
2023-05-09T06:39:27.579Z,19.16
2023-05-09T06:41:54.578Z,19.19
2023-05-09T06:44:22.023Z,19.24
2023-05-09T06:46:49.235Z,19.28
2023-05-09T06:49:16.430Z,19.36
2023-05-09T06:51:43.570Z,19.44
2023-05-09T06:54:10.748Z,19.51
2023-05-09T06:56:37.796Z,19.53
2023-05-09T06:59:07.811Z,19.52
2023-05-09T07:01:35.003Z,19.38
2023-05-09T07:04:02.210Z,19.24
2023-05-09T07:06:29.587Z,19.31
2023-05-09T07:08:56.856Z,19.38
2023-05-09T07:11:24.073Z,19.37
2023-05-09T07:13:51.740Z,19.36
2023-05-09T07:16:18.982Z,19.33
2023-05-09T07:18:46.004Z,19.25
2023-05-09T07:21:13.207Z,19.22
2023-05-09T07:23:40.417Z,19.13
2023-05-09T07:26:07.814Z,19.07
2023-05-09T07:28:34.939Z,18.91
2023-05-09T07:31:02.224Z,18.78
2023-05-09T07:33:29.257Z,18.66
2023-05-09T07:35:58.225Z,18.56
2023-05-09T07:38:25.260Z,18.54
2023-05-09T07:40:53.270Z,18.55
2023-05-09T07:43:20.456Z,18.55
2023-05-09T07:45:47.540Z,18.52
2023-05-09T07:48:14.589Z,18.54
2023-05-09T07:50:41.641Z,18.54
2023-05-09T07:53:08.625Z,18.61
2023-05-09T07:55:36.534Z,18.61
2023-05-09T07:58:03.862Z,18.70
2023-05-09T08:00:30.934Z,18.87
2023-05-09T08:02:58.082Z,19.24
2023-05-09T08:05:25.236Z,19.64
2023-05-09T08:07:52.442Z,19.93
2023-05-09T08:10:21.861Z,20.01
2023-05-09T08:12:49.169Z,20.04
2023-05-09T08:15:16.379Z,20.08
2023-05-09T08:17:43.759Z,20.19
2023-05-09T08:20:12.026Z,20.34
2023-05-09T08:22:40.602Z,20.20
2023-05-09T08:25:09.214Z,20.02
2023-05-09T08:27:36.322Z,19.86
2023-05-09T08:30:04.223Z,19.80
2023-05-09T08:32:31.246Z,19.82
2023-05-09T08:34:58.238Z,19.79
2023-05-09T08:37:26.117Z,19.80
2023-05-09T08:39:53.119Z,20.06
2023-05-09T08:42:24.770Z,19.98
2023-05-09T08:44:53.549Z,19.86
2023-05-09T08:47:21.791Z,19.83
2023-05-09T08:49:50.359Z,19.88
2023-05-09T08:52:17.664Z,19.74
2023-05-09T08:54:44.988Z,19.86
2023-05-09T08:57:12.475Z,19.91
2023-05-09T08:59:42.360Z,19.89
2023-05-09T09:02:14.635Z,19.81
2023-05-09T09:04:41.867Z,19.71
2023-05-09T09:07:10.054Z,19.56
2023-05-09T09:09:39.399Z,19.51
2023-05-09T09:12:09.781Z,19.38
2023-05-09T09:14:42.839Z,19.33
2023-05-09T09:17:12.176Z,19.29
2023-05-09T09:19:43.136Z,19.21
2023-05-09T09:22:16.430Z,19.11
2023-05-09T09:24:43.680Z,19.03
2023-05-09T09:27:10.959Z,18.99
2023-05-09T09:29:38.807Z,19.02
2023-05-09T09:32:07.906Z,19.16
2023-05-09T09:34:35.287Z,19.33
2023-05-09T09:37:02.392Z,19.43
2023-05-09T09:39:29.457Z,19.54
2023-05-09T09:41:56.448Z,19.56
2023-05-09T09:44:23.612Z,19.61
2023-05-09T09:46:55.947Z,19.75
2023-05-09T09:49:25.853Z,19.75
2023-05-09T09:51:55.842Z,19.74
2023-05-09T09:54:26.844Z,19.84
2023-05-09T09:56:54.971Z,19.94
2023-05-09T09:59:27.904Z,20.03
2023-05-09T10:02:07.055Z,19.95
2023-05-09T10:04:37.955Z,19.79
2023-05-09T10:07:12.806Z,19.69
2023-05-09T10:09:43.826Z,19.67
2023-05-09T10:12:11.911Z,19.63
2023-05-09T10:14:42.353Z,19.59
2023-05-09T10:17:17.381Z,19.64
2023-05-09T10:19:47.735Z,19.64
2023-05-09T10:22:17.908Z,19.62
2023-05-09T10:24:59.567Z,19.56
2023-05-09T10:27:30.572Z,19.49
2023-05-09T10:30:19.719Z,19.35
2023-05-09T10:33:11.182Z,19.24
2023-05-09T10:35:52.065Z,19.19
2023-05-09T10:38:19.371Z,19.16
2023-05-09T10:40:49.907Z,19.16
2023-05-09T10:43:17.034Z,19.03
2023-05-09T10:45:44.687Z,18.91
2023-05-09T10:48:13.132Z,18.86
2023-05-09T10:50:42.542Z,18.84
2023-05-09T10:53:17.920Z,18.85
2023-05-09T10:55:52.906Z,18.90
2023-05-09T10:58:33.690Z,18.92
2023-05-09T11:01:03.537Z,18.91
2023-05-09T11:03:54.301Z,18.84
2023-05-09T11:06:54.011Z,18.74
2023-05-09T11:09:41.466Z,18.73
2023-05-09T11:12:12.159Z,18.82
2023-05-09T11:14:41.479Z,18.90
2023-05-09T11:17:16.786Z,18.94
2023-05-09T11:19:46.811Z,18.92
2023-05-09T11:22:21.270Z,18.91
2023-05-09T11:24:59.144Z,18.86
2023-05-09T11:27:30.611Z,18.71
2023-05-09T11:29:59.668Z,18.59
2023-05-09T11:32:34.293Z,18.46
2023-05-09T11:35:14.946Z,18.44
2023-05-09T11:38:02.787Z,18.41
2023-05-09T11:40:31.455Z,18.38
2023-05-09T11:42:59.940Z,18.52
2023-05-09T11:45:33.298Z,18.44
2023-05-09T11:48:01.527Z,18.30
2023-05-09T11:50:29.498Z,18.34
2023-05-09T11:52:56.558Z,18.41
2023-05-09T11:55:25.337Z,18.47
2023-05-09T11:57:54.532Z,18.47
2023-05-09T12:00:26.484Z,18.49
2023-05-09T12:02:54.052Z,18.45
2023-05-09T12:05:23.410Z,18.46
2023-05-09T12:07:50.928Z,18.51
2023-05-09T12:10:23.250Z,18.42
2023-05-09T12:12:52.948Z,18.26
2023-05-09T12:15:21.841Z,18.24
2023-05-09T12:18:05.671Z,18.18
2023-05-09T12:20:50.424Z,18.15
2023-05-09T12:23:19.703Z,18.11
2023-05-09T12:25:57.295Z,18.15
2023-05-09T12:28:25.935Z,18.16
2023-05-09T12:30:54.646Z,18.19
2023-05-09T12:33:22.442Z,18.28
2023-05-09T12:36:10.396Z,18.36
2023-05-09T12:38:38.216Z,18.39
2023-05-09T12:41:15.430Z,18.42
2023-05-09T12:43:51.181Z,18.51
2023-05-09T12:46:20.257Z,18.64
2023-05-09T12:48:49.304Z,18.70
2023-05-09T12:51:20.999Z,18.78
2023-05-09T12:53:48.747Z,18.87
2023-05-09T12:56:25.355Z,18.89
2023-05-09T12:58:56.088Z,18.92
2023-05-09T13:01:28.229Z,19.00
2023-05-09T13:04:06.696Z,19.08
2023-05-09T13:06:36.056Z,19.10
2023-05-09T13:09:06.217Z,19.12
2023-05-09T13:11:33.933Z,19.15
2023-05-09T13:14:03.147Z,19.17
2023-05-09T13:16:30.205Z,19.19
2023-05-09T13:18:57.266Z,19.23
2023-05-09T13:21:24.378Z,19.29
2023-05-09T13:23:52.187Z,19.37
2023-05-09T13:26:19.509Z,19.46
2023-05-09T13:28:46.616Z,19.48
2023-05-09T13:31:13.913Z,19.37
2023-05-09T13:33:41.227Z,19.32
2023-05-09T13:36:08.432Z,19.39
2023-05-09T13:38:39.053Z,19.28
2023-05-09T13:41:10.109Z,19.11
2023-05-09T13:43:42.619Z,19.04
2023-05-09T13:46:09.882Z,19.01
2023-05-09T13:48:37.858Z,18.92
2023-05-09T13:51:07.562Z,18.90
2023-05-09T13:53:35.773Z,18.90
2023-05-09T13:56:04.052Z,18.89
2023-05-09T13:58:31.132Z,18.87
2023-05-09T14:00:58.387Z,18.82
2023-05-09T14:03:25.492Z,18.80
2023-05-09T14:05:52.685Z,18.80
2023-05-09T14:08:21.399Z,18.85
2023-05-09T14:10:48.643Z,18.79
2023-05-09T14:13:15.796Z,18.75
2023-05-09T14:15:42.966Z,18.66
2023-05-09T14:18:10.020Z,18.59
2023-05-09T14:20:37.752Z,18.52
2023-05-09T14:23:04.923Z,18.49
2023-05-09T14:25:32.432Z,18.47
2023-05-09T14:27:59.710Z,18.49
2023-05-09T14:30:27.127Z,18.54
2023-05-09T14:32:54.271Z,18.61
2023-05-09T14:35:21.395Z,18.65
2023-05-09T14:37:48.412Z,18.68
2023-05-09T14:40:16.312Z,18.72
2023-05-09T14:42:44.231Z,18.76
2023-05-09T14:45:12.831Z,18.77
2023-05-09T14:47:41.209Z,18.74
2023-05-09T14:50:11.442Z,18.73
2023-05-09T14:52:38.459Z,18.73
2023-05-09T14:55:07.411Z,18.70
2023-05-09T14:57:34.750Z,18.67
2023-05-09T15:00:12.503Z,18.68
2023-05-09T15:02:47.261Z,18.73
2023-05-09T15:05:14.718Z,18.72
2023-05-09T15:07:41.752Z,18.62
2023-05-09T15:10:09.378Z,18.44
2023-05-09T15:12:36.478Z,18.35
2023-05-09T15:15:19.131Z,18.25
2023-05-09T15:17:46.412Z,18.22
2023-05-09T15:20:15.658Z,18.21
2023-05-09T15:22:43.196Z,18.14
2023-05-09T15:26:12.832Z,18.02
2023-05-09T15:28:40.053Z,17.83
2023-05-09T15:31:08.399Z,17.69
2023-05-09T15:33:35.719Z,17.59
2023-05-09T15:36:03.243Z,17.54
2023-05-09T15:38:30.364Z,17.49
2023-05-09T15:40:57.413Z,17.43
2023-05-09T15:43:24.471Z,17.52
2023-05-09T15:45:51.818Z,17.62
2023-05-09T15:48:19.180Z,17.72
2023-05-09T15:50:46.228Z,17.77
2023-05-09T15:53:15.560Z,17.78
2023-05-09T15:55:43.709Z,17.82
2023-05-09T15:58:11.060Z,17.77
2023-05-09T16:00:38.180Z,17.70
2023-05-09T16:03:05.282Z,17.66
2023-05-09T16:05:32.422Z,17.61
2023-05-09T16:07:59.475Z,17.61
2023-05-09T16:10:26.941Z,17.65
2023-05-09T16:12:54.204Z,17.65
2023-05-09T16:15:21.731Z,17.65
2023-05-09T16:17:48.772Z,17.61
2023-05-09T16:20:16.056Z,17.56
2023-05-09T16:22:43.296Z,17.66
2023-05-09T16:25:11.245Z,17.69
2023-05-09T16:27:38.485Z,17.69
2023-05-09T16:30:06.454Z,17.50
2023-05-09T16:32:33.543Z,17.43
2023-05-09T16:35:00.578Z,17.29
2023-05-09T16:37:29.842Z,17.24
2023-05-09T16:39:57.842Z,17.24
2023-05-09T16:42:25.306Z,17.15
2023-05-09T16:44:52.679Z,17.04
2023-05-09T16:47:19.655Z,17.02
2023-05-09T16:49:46.757Z,16.96
2023-05-09T16:52:13.813Z,16.99
2023-05-09T16:54:42.115Z,16.94
2023-05-09T16:57:09.268Z,16.91
2023-05-09T16:59:37.277Z,16.93
2023-05-09T17:02:04.705Z,16.88
2023-05-09T17:04:32.064Z,16.86
2023-05-09T17:06:59.255Z,16.89
2023-05-09T17:09:26.297Z,16.90
2023-05-09T17:11:53.485Z,16.88
2023-05-09T17:14:20.574Z,16.84
2023-05-09T17:16:47.623Z,16.82
2023-05-09T17:19:16.216Z,16.76
2023-05-09T17:21:43.302Z,16.71
2023-05-09T17:24:10.516Z,16.62
2023-05-09T17:26:38.663Z,16.56
2023-05-09T17:29:06.032Z,16.53
2023-05-09T17:31:33.147Z,16.44
2023-05-09T17:34:01.560Z,16.33
2023-05-09T17:36:28.630Z,16.30
2023-05-09T17:38:56.231Z,16.27
2023-05-09T17:41:23.528Z,16.28
2023-05-09T17:43:51.955Z,16.29
2023-05-09T17:46:19.003Z,16.21
2023-05-09T17:48:47.821Z,16.15
2023-05-09T17:51:15.064Z,16.12
2023-05-09T17:53:42.791Z,16.12
2023-05-09T17:56:09.972Z,16.12
2023-05-09T17:58:37.104Z,16.10
2023-05-09T18:01:04.211Z,16.11
2023-05-09T18:03:32.330Z,16.06
2023-05-09T18:06:02.787Z,15.99
2023-05-09T18:08:29.973Z,15.95
2023-05-09T18:10:57.781Z,15.94
2023-05-09T18:13:25.082Z,15.92
2023-05-09T18:15:54.125Z,15.92
2023-05-09T18:18:22.441Z,15.89
2023-05-09T18:20:49.624Z,15.87
2023-05-09T18:23:16.670Z,15.82
2023-05-09T18:25:43.848Z,15.77
2023-05-09T18:28:11.012Z,15.80
2023-05-09T18:30:38.991Z,15.80
2023-05-09T18:33:06.201Z,15.80
2023-05-09T18:35:33.222Z,15.79
2023-05-09T18:38:00.357Z,15.77
2023-05-09T18:40:27.862Z,15.79
2023-05-09T18:42:55.165Z,15.75
2023-05-09T18:45:22.429Z,15.71
2023-05-09T18:47:49.565Z,15.66
2023-05-09T18:50:18.431Z,15.66
2023-05-09T18:52:46.018Z,15.63
2023-05-09T18:55:19.687Z,15.62
2023-05-09T18:57:47.015Z,15.61
2023-05-09T19:00:15.623Z,15.56
2023-05-09T19:02:42.989Z,15.52
2023-05-09T19:05:10.787Z,15.50
2023-05-09T19:07:38.591Z,15.48
2023-05-09T19:10:08.351Z,15.48
2023-05-09T19:12:35.516Z,15.48
2023-05-09T19:15:03.272Z,15.46
2023-05-09T19:17:30.474Z,15.46
2023-05-09T19:19:58.392Z,15.44
2023-05-09T19:22:25.475Z,15.45
2023-05-09T19:24:52.571Z,15.45
2023-05-09T19:27:19.638Z,15.44
2023-05-09T19:29:49.304Z,15.43
2023-05-09T19:32:18.108Z,15.44
2023-05-09T19:34:45.135Z,15.41
2023-05-09T19:37:12.175Z,15.40
2023-05-09T19:39:39.211Z,15.41
2023-05-09T19:42:06.505Z,15.41
2023-05-09T19:44:33.614Z,15.39
2023-05-09T19:47:05.087Z,15.39
2023-05-09T19:49:32.784Z,15.40
2023-05-09T19:51:59.849Z,15.38
2023-05-09T19:54:27.253Z,15.36
2023-05-09T19:56:54.463Z,15.37
2023-05-09T19:59:21.454Z,15.35
2023-05-09T20:01:48.666Z,15.37
2023-05-09T20:04:16.486Z,15.36
2023-05-09T20:06:43.468Z,15.39
2023-05-09T20:09:10.488Z,15.40
2023-05-09T20:11:37.472Z,15.40
2023-05-09T20:14:04.572Z,15.42
2023-05-09T20:16:31.718Z,15.43
2023-05-09T20:18:59.347Z,15.45
2023-05-09T20:21:27.755Z,15.44
2023-05-09T20:23:54.756Z,15.41
2023-05-09T20:26:23.893Z,15.39
2023-05-09T20:28:58.860Z,15.40
2023-05-09T20:31:25.904Z,15.39
2023-05-09T20:33:54.618Z,15.40
2023-05-09T20:36:22.082Z,15.38
2023-05-09T20:38:49.379Z,15.39
2023-05-09T20:41:17.420Z,15.37
2023-05-09T20:43:44.608Z,15.38
2023-05-09T20:46:11.980Z,15.38
2023-05-09T20:48:39.065Z,15.39
2023-05-09T20:51:09.023Z,15.40
2023-05-09T20:53:37.683Z,15.39
2023-05-09T20:56:05.185Z,15.35
2023-05-09T20:58:34.615Z,15.31
2023-05-09T21:01:01.769Z,15.29
2023-05-09T21:03:28.887Z,15.28
2023-05-09T21:05:55.978Z,15.24
2023-05-09T21:08:23.532Z,15.19
2023-05-09T21:10:54.392Z,15.16
2023-05-09T21:13:21.497Z,15.14
2023-05-09T21:15:51.892Z,15.14
2023-05-09T21:18:20.483Z,15.12
2023-05-09T21:20:47.535Z,15.12
2023-05-09T21:23:14.940Z,15.10
2023-05-09T21:25:42.405Z,15.08
2023-05-09T21:28:09.423Z,15.07
2023-05-09T21:30:36.646Z,15.07
2023-05-09T21:33:04.237Z,15.03
2023-05-09T21:35:31.370Z,15.04
2023-05-09T21:37:58.400Z,15.07
2023-05-09T21:40:25.633Z,15.08
2023-05-09T21:42:52.633Z,15.06
2023-05-09T21:45:19.865Z,15.05
2023-05-09T21:47:47.051Z,15.01
2023-05-09T21:50:14.810Z,15.02
2023-05-09T21:52:42.127Z,15.00
2023-05-09T21:55:09.855Z,14.99
2023-05-09T21:57:37.036Z,14.95
2023-05-09T22:00:06.416Z,14.95
2023-05-09T22:02:34.230Z,14.94
2023-05-09T22:05:01.409Z,14.95
2023-05-09T22:07:28.500Z,14.96
2023-05-09T22:09:55.834Z,14.99
2023-05-09T22:12:23.104Z,14.98
2023-05-09T22:14:56.284Z,14.97
2023-05-09T22:17:24.597Z,14.95
2023-05-09T22:19:52.106Z,14.90
2023-05-09T22:22:19.255Z,14.92
2023-05-09T22:24:46.298Z,14.91
2023-05-09T22:27:13.396Z,14.90
2023-05-09T22:29:41.448Z,14.90
2023-05-09T22:32:08.727Z,14.88
2023-05-09T22:34:36.089Z,14.92
2023-05-09T22:37:03.523Z,14.89
2023-05-09T22:39:30.977Z,14.86
2023-05-09T22:41:58.030Z,14.90
2023-05-09T22:44:25.172Z,14.84
2023-05-09T22:46:52.215Z,14.82
2023-05-09T22:49:19.329Z,14.82
2023-05-09T22:51:46.423Z,14.81
2023-05-09T22:54:13.444Z,14.80
2023-05-09T22:56:40.450Z,14.81
2023-05-09T22:59:07.561Z,14.81
2023-05-09T23:01:34.707Z,14.84
2023-05-09T23:04:01.866Z,14.81
2023-05-09T23:06:28.965Z,14.80
2023-05-09T23:08:56.076Z,14.80
2023-05-09T23:11:24.661Z,14.82
2023-05-09T23:13:51.917Z,14.82
2023-05-09T23:16:19.109Z,14.77
2023-05-09T23:18:46.229Z,14.79
2023-05-09T23:21:13.399Z,14.80
2023-05-09T23:23:40.724Z,14.81
2023-05-09T23:26:07.978Z,14.81
2023-05-09T23:28:34.946Z,14.79
2023-05-09T23:31:02.166Z,14.79
2023-05-09T23:33:29.262Z,14.80
2023-05-09T23:35:57.095Z,14.79
2023-05-09T23:38:24.293Z,14.78
2023-05-09T23:40:53.051Z,14.77
2023-05-09T23:43:20.203Z,14.77
2023-05-09T23:45:47.702Z,14.79
2023-05-09T23:48:14.732Z,14.83
2023-05-09T23:50:41.899Z,14.82
2023-05-09T23:53:08.963Z,14.81
2023-05-09T23:55:35.945Z,14.80
2023-05-09T23:58:03.054Z,14.81
